createdAt,value
2022-08-18T00:02:01.793Z,23.70
2022-08-18T00:05:06.685Z,21.90
2022-08-18T00:08:10.324Z,21.90
2022-08-18T00:11:13.889Z,21.90
2022-08-18T00:14:22.421Z,21.80
2022-08-18T00:17:27.630Z,23.80
2022-08-18T00:20:30.875Z,21.80
2022-08-18T00:23:34.072Z,21.70
2022-08-18T00:26:37.378Z,24.20
2022-08-18T00:32:49.583Z,21.60
2022-08-18T00:35:53.004Z,21.20
2022-08-18T00:38:56.136Z,22.30
2022-08-18T00:41:59.344Z,21.50
2022-08-18T00:45:07.498Z,21.50
2022-08-18T00:48:14.752Z,21.50
2022-08-18T00:51:25.941Z,21.50
2022-08-18T00:54:34.061Z,21.50
2022-08-18T00:57:37.876Z,19.30
2022-08-18T01:00:41.485Z,21.50
2022-08-18T01:03:53.687Z,24.10
2022-08-18T01:07:03.061Z,21.50
2022-08-18T01:10:10.182Z,21.50
2022-08-18T01:13:13.700Z,21.40
2022-08-18T01:16:34.801Z,22.50
2022-08-18T01:19:57.612Z,21.50
2022-08-18T01:23:12.955Z,22.20
2022-08-18T01:26:19.067Z,18.90
2022-08-18T01:29:22.528Z,16.90
2022-08-18T01:32:26.483Z,21.80
2022-08-18T01:35:30.870Z,21.60
2022-08-18T01:38:50.316Z,21.70
2022-08-18T01:41:53.649Z,21.80
2022-08-18T01:44:57.116Z,21.90
2022-08-18T01:48:00.694Z,21.90
2022-08-18T01:51:07.541Z,22.10
2022-08-18T01:54:16.181Z,22.00
2022-08-18T01:57:21.855Z,22.10
2022-08-18T02:00:26.310Z,22.20
2022-08-18T02:03:36.269Z,23.10
2022-08-18T02:06:46.464Z,22.30
2022-08-18T02:09:52.614Z,22.30
2022-08-18T02:12:56.888Z,22.40
2022-08-18T02:16:00.148Z,22.40
2022-08-18T02:19:03.708Z,22.40
2022-08-18T02:22:09.838Z,22.40
2022-08-18T02:25:16.312Z,22.50
2022-08-18T02:28:19.634Z,22.50
2022-08-18T02:31:26.351Z,22.40
2022-08-18T02:34:29.758Z,22.60
2022-08-18T02:37:33.528Z,22.60
2022-08-18T02:40:39.317Z,23.90
2022-08-18T02:43:43.918Z,22.70
2022-08-18T02:46:47.309Z,22.70
2022-08-18T02:49:51.073Z,22.60
2022-08-18T02:52:54.809Z,22.60
2022-08-18T02:56:40.704Z,22.60
2022-08-18T02:59:47.470Z,22.70
2022-08-18T03:02:53.435Z,22.60
2022-08-18T03:05:56.577Z,22.70
2022-08-18T03:08:59.924Z,23.00
2022-08-18T03:12:07.233Z,22.60
2022-08-18T03:15:12.380Z,22.60
2022-08-18T03:18:17.002Z,22.60
2022-08-18T03:21:25.589Z,21.80
2022-08-18T03:24:30.432Z,22.50
2022-08-18T03:27:34.968Z,22.60
2022-08-18T03:30:38.207Z,22.60
2022-08-18T03:33:42.452Z,23.80
2022-08-18T03:39:51.621Z,22.50
2022-08-18T03:42:56.724Z,22.40
2022-08-18T03:46:03.371Z,24.00
2022-08-18T03:49:06.720Z,22.30
2022-08-18T03:52:11.242Z,20.80
2022-08-18T03:55:14.417Z,20.10
2022-08-18T03:58:19.009Z,22.10
2022-08-18T04:01:27.141Z,22.00
2022-08-18T04:04:30.697Z,20.90
2022-08-18T04:07:34.536Z,21.80
2022-08-18T04:10:38.092Z,21.80
2022-08-18T04:13:43.430Z,22.00
2022-08-18T04:16:49.070Z,22.00
2022-08-18T04:19:53.142Z,22.00
2022-08-18T04:22:56.777Z,22.00
2022-08-18T04:26:01.819Z,22.00
2022-08-18T04:29:09.132Z,22.00
2022-08-18T04:32:12.379Z,22.00
2022-08-18T04:35:15.731Z,20.80
2022-08-18T04:38:19.027Z,21.90
2022-08-18T04:41:26.904Z,21.90
2022-08-18T04:44:31.780Z,22.00
2022-08-18T04:47:36.190Z,22.10
2022-08-18T04:50:40.753Z,22.10
2022-08-18T04:53:47.560Z,22.10
2022-08-18T04:56:50.861Z,23.50
2022-08-18T04:59:57.674Z,23.70
2022-08-18T05:03:00.902Z,21.70
2022-08-18T05:06:07.227Z,21.90
2022-08-18T05:09:13.104Z,22.00
2022-08-18T05:12:20.402Z,19.00
2022-08-18T05:15:42.160Z,22.00
2022-08-18T05:18:54.722Z,22.10
2022-08-18T05:22:03.070Z,22.10
2022-08-18T05:25:09.038Z,22.40
2022-08-18T05:28:13.437Z,20.70
2022-08-18T05:31:22.918Z,22.20
2022-08-18T05:34:26.155Z,22.30
2022-08-18T05:37:40.643Z,23.90
2022-08-18T05:40:47.701Z,22.50
2022-08-18T05:43:52.660Z,22.40
2022-08-18T05:47:04.723Z,22.40
2022-08-18T05:50:11.887Z,21.30
2022-08-18T05:53:20.554Z,22.40
2022-08-18T05:56:47.519Z,22.30
2022-08-18T05:59:54.996Z,22.30
2022-08-18T06:03:08.599Z,22.30
2022-08-18T06:06:19.483Z,22.30
2022-08-18T06:09:31.457Z,22.30
2022-08-18T06:12:40.165Z,22.30
2022-08-18T06:15:55.612Z,22.30
2022-08-18T06:19:10.470Z,22.30
2022-08-18T06:22:30.550Z,22.70
2022-08-18T06:25:51.695Z,22.30
2022-08-18T06:29:11.932Z,22.40
2022-08-18T06:32:29.229Z,22.30
2022-08-18T06:35:42.375Z,22.50
2022-08-18T06:39:01.897Z,22.50
2022-08-18T06:42:05.927Z,22.50
2022-08-18T06:45:13.959Z,22.40
2022-08-18T06:48:33.658Z,22.60
2022-08-18T06:51:40.782Z,22.50
2022-08-18T06:54:50.425Z,22.40
2022-08-18T06:57:59.036Z,20.20
2022-08-18T07:01:08.709Z,22.50
2022-08-18T07:04:30.618Z,22.60
2022-08-18T07:07:40.896Z,22.60
2022-08-18T07:10:47.603Z,22.80
2022-08-18T07:14:09.357Z,23.90
2022-08-18T07:17:42.519Z,23.40
2022-08-18T07:20:53.732Z,23.80
2022-08-18T07:24:24.355Z,24.20
2022-08-18T07:27:51.481Z,24.50
2022-08-18T07:31:17.411Z,25.00
2022-08-18T07:34:26.541Z,25.20
2022-08-18T07:37:44.184Z,25.50
2022-08-18T07:40:56.122Z,25.70
2022-08-18T07:44:16.357Z,25.80
2022-08-18T07:47:27.999Z,25.70
2022-08-18T07:50:58.506Z,25.70
2022-08-18T07:54:37.681Z,25.70
2022-08-18T07:57:48.760Z,25.60
2022-08-18T08:01:04.398Z,25.70
2022-08-18T08:04:25.852Z,25.80
2022-08-18T08:07:35.692Z,25.70
2022-08-18T08:10:51.611Z,25.80
2022-08-18T08:14:14.003Z,31.20
2022-08-18T08:17:32.701Z,25.90
2022-08-18T08:20:47.392Z,26.20
2022-08-18T08:24:15.098Z,26.00
2022-08-18T08:27:31.336Z,26.20
2022-08-18T08:30:47.535Z,26.30
2022-08-18T08:34:04.057Z,27.10
2022-08-18T08:37:15.877Z,26.50
2022-08-18T08:40:26.403Z,26.50
2022-08-18T08:43:35.919Z,26.50
2022-08-18T08:46:49.727Z,26.50
2022-08-18T08:50:00.785Z,26.70
2022-08-18T08:53:13.694Z,26.80
2022-08-18T08:56:21.118Z,26.80
2022-08-18T08:59:25.686Z,26.80
2022-08-18T09:03:05.259Z,26.80
2022-08-18T09:06:27.706Z,28.00
2022-08-18T09:10:05.389Z,27.10
2022-08-18T09:13:41.517Z,25.60
2022-08-18T09:17:11.327Z,27.30
2022-08-18T09:20:49.667Z,26.30
2022-08-18T09:24:10.774Z,27.50
2022-08-18T09:27:39.866Z,27.50
2022-08-18T09:31:19.984Z,27.60
2022-08-18T09:34:45.351Z,27.70
2022-08-18T09:38:11.425Z,29.10
2022-08-18T09:41:35.119Z,27.90
2022-08-18T09:45:08.935Z,27.80
2022-08-18T09:48:31.886Z,27.90
2022-08-18T09:51:40.246Z,28.00
2022-08-18T09:54:59.871Z,28.00
2022-08-18T09:58:20.438Z,28.10
2022-08-18T10:01:42.015Z,28.20
2022-08-18T10:04:50.511Z,28.30
2022-08-18T10:08:21.263Z,28.30
2022-08-18T10:11:56.695Z,28.40
2022-08-18T10:15:33.033Z,28.50
2022-08-18T10:18:55.773Z,28.60
2022-08-18T10:22:09.560Z,28.70
2022-08-18T10:25:22.639Z,28.70
2022-08-18T10:28:57.697Z,28.80
2022-08-18T10:32:53.998Z,29.00
2022-08-18T10:36:03.156Z,29.00
2022-08-18T10:39:08.679Z,28.80
2022-08-18T10:42:20.919Z,29.20
2022-08-18T10:45:31.592Z,29.30
2022-08-18T10:48:35.708Z,29.30
2022-08-18T10:52:04.030Z,29.30
2022-08-18T10:55:47.945Z,29.30
2022-08-18T10:59:16.489Z,29.30
2022-08-18T11:03:29.906Z,29.30
2022-08-18T11:06:26.650Z,29.30
2022-08-18T11:09:32.286Z,28.30
2022-08-18T11:13:08.907Z,29.00
2022-08-18T11:16:33.261Z,29.30
2022-08-18T11:19:42.471Z,29.30
2022-08-18T11:22:55.674Z,29.40
2022-08-18T11:26:18.435Z,29.40
2022-08-18T11:29:32.935Z,29.40
2022-08-18T11:32:39.535Z,29.50
2022-08-18T11:35:52.847Z,28.60
2022-08-18T11:38:57.432Z,29.40
2022-08-18T11:42:00.841Z,29.40
2022-08-18T11:45:13.346Z,29.40
2022-08-18T11:48:23.626Z,29.40
2022-08-18T11:51:34.451Z,29.40
2022-08-18T11:54:50.741Z,29.50
2022-08-18T11:58:00.388Z,29.50
2022-08-18T12:01:04.069Z,30.00
2022-08-18T12:04:21.923Z,29.50
2022-08-18T12:07:35.201Z,29.50
2022-08-18T12:10:38.703Z,29.50
2022-08-18T12:13:45.327Z,31.30
2022-08-18T12:16:50.252Z,29.30
2022-08-18T12:19:54.380Z,29.20
2022-08-18T12:22:59.012Z,26.80
2022-08-18T12:26:02.490Z,29.10
2022-08-18T12:29:08.870Z,29.10
2022-08-18T12:32:18.044Z,29.00
2022-08-18T12:35:38.142Z,29.20
2022-08-18T12:38:45.661Z,28.90
2022-08-18T12:41:56.073Z,28.80
2022-08-18T12:45:02.820Z,29.00
2022-08-18T12:48:06.632Z,28.80
2022-08-18T12:51:10.907Z,28.80
2022-08-18T12:54:17.611Z,26.90
2022-08-18T13:00:51.372Z,28.70
2022-08-18T13:04:13.347Z,28.70
2022-08-18T13:07:19.087Z,28.60
2022-08-18T13:10:42.807Z,28.60
2022-08-18T13:13:47.594Z,28.40
2022-08-18T13:16:57.746Z,29.70
2022-08-18T13:20:01.082Z,28.50
2022-08-18T13:23:04.668Z,28.40
2022-08-18T13:26:23.035Z,28.40
2022-08-18T13:29:26.799Z,28.40
2022-08-18T13:32:37.272Z,28.40
2022-08-18T13:35:52.430Z,28.10
2022-08-18T13:38:57.687Z,30.10
2022-08-18T13:42:26.171Z,28.30
2022-08-18T13:45:26.343Z,28.20
2022-08-18T13:48:29.847Z,28.20
2022-08-18T13:51:33.144Z,28.10
2022-08-18T13:54:36.424Z,28.10
2022-08-18T13:57:49.650Z,28.00
2022-08-18T14:01:15.842Z,27.80
2022-08-18T14:04:27.796Z,28.00
2022-08-18T14:07:31.928Z,28.00
2022-08-18T14:10:38.531Z,28.00
2022-08-18T14:13:44.441Z,28.00
2022-08-18T14:16:48.783Z,26.90
2022-08-18T14:20:15.274Z,28.00
2022-08-18T14:23:43.753Z,28.00
2022-08-18T14:26:56.792Z,28.00
2022-08-18T14:30:01.942Z,27.90
2022-08-18T14:33:11.376Z,27.10
2022-08-18T14:36:16.176Z,27.90
2022-08-18T14:39:21.433Z,27.80
2022-08-18T14:42:24.727Z,27.70
2022-08-18T14:45:48.617Z,27.70
2022-08-18T14:48:52.323Z,27.70
2022-08-18T14:51:56.062Z,27.70
2022-08-18T14:55:00.047Z,26.80
2022-08-18T14:58:03.287Z,27.60
2022-08-18T15:01:11.771Z,27.60
2022-08-18T15:04:19.164Z,27.50
2022-08-18T15:07:23.848Z,29.90
2022-08-18T15:10:28.040Z,27.40
2022-08-18T15:13:32.132Z,29.30
2022-08-18T15:16:38.660Z,27.40
2022-08-18T15:19:59.902Z,27.50
2022-08-18T15:23:27.979Z,27.40
2022-08-18T15:26:32.481Z,27.50
2022-08-18T15:29:41.572Z,27.20
2022-08-18T15:32:51.310Z,27.30
2022-08-18T15:35:55.714Z,27.30
2022-08-18T15:38:59.647Z,27.20
2022-08-18T15:42:11.896Z,27.30
2022-08-18T15:45:16.973Z,27.30
2022-08-18T15:48:24.844Z,27.30
2022-08-18T15:51:31.515Z,27.20
2022-08-18T15:54:44.581Z,27.10
2022-08-18T15:57:57.912Z,27.10
2022-08-18T16:01:01.437Z,28.90
2022-08-18T16:04:25.586Z,28.00
2022-08-18T16:07:40.957Z,27.00
2022-08-18T16:10:48.809Z,26.90
2022-08-18T16:13:52.458Z,26.90
2022-08-18T16:16:58.603Z,26.80
2022-08-18T16:20:03.524Z,23.20
2022-08-18T16:23:08.018Z,27.00
2022-08-18T16:29:22.646Z,30.00
2022-08-18T16:32:26.219Z,26.70
2022-08-18T16:35:31.402Z,24.30
2022-08-18T16:38:34.710Z,26.60
2022-08-18T16:41:38.523Z,26.70
2022-08-18T16:44:42.178Z,26.80
2022-08-18T16:47:45.424Z,26.60
2022-08-18T16:50:51.302Z,26.30
2022-08-18T16:53:54.929Z,26.50
2022-08-18T16:56:58.158Z,26.50
2022-08-18T17:00:19.436Z,25.10
2022-08-18T17:03:54.513Z,26.40
2022-08-18T17:06:59.030Z,25.80
2022-08-18T17:10:03.590Z,26.20
2022-08-18T17:13:07.038Z,26.50
2022-08-18T17:16:12.287Z,26.10
2022-08-18T17:19:15.546Z,25.90
2022-08-18T17:22:20.438Z,29.90
2022-08-18T17:25:27.494Z,26.00
2022-08-18T17:28:47.984Z,25.90
2022-08-18T17:32:00.482Z,26.00
2022-08-18T17:35:13.544Z,25.80
2022-08-18T17:38:28.020Z,25.90
2022-08-18T17:41:31.418Z,25.90
2022-08-18T17:44:46.304Z,25.70
2022-08-18T17:48:01.267Z,26.10
2022-08-18T17:51:31.671Z,25.60
2022-08-18T17:54:45.829Z,25.80
2022-08-18T17:57:58.598Z,25.60
2022-08-18T18:01:02.429Z,25.50
2022-08-18T18:04:06.321Z,25.50
2022-08-18T18:07:21.916Z,25.50
2022-08-18T18:10:40.200Z,25.60
2022-08-18T18:17:07.013Z,25.30
2022-08-18T18:20:26.114Z,25.40
2022-08-18T18:23:34.555Z,25.30
2022-08-18T18:26:42.842Z,22.70
2022-08-18T18:29:58.082Z,22.50
2022-08-18T18:33:08.105Z,25.10
2022-08-18T18:36:11.702Z,26.20
2022-08-18T18:39:20.469Z,26.90
2022-08-18T18:42:29.771Z,25.00
2022-08-18T18:45:33.002Z,25.00
2022-08-18T18:48:51.819Z,24.90
2022-08-18T18:52:08.398Z,24.90
2022-08-18T18:55:19.512Z,24.00
2022-08-18T18:58:38.666Z,24.80
2022-08-18T19:02:00.842Z,24.60
2022-08-18T19:05:23.401Z,23.60
2022-08-18T19:08:39.671Z,23.10
2022-08-18T19:12:04.662Z,24.60
2022-08-18T19:15:15.891Z,24.60
2022-08-18T19:18:28.272Z,24.60
2022-08-18T19:22:04.854Z,24.60
2022-08-18T19:25:08.110Z,24.60
2022-08-18T19:28:19.409Z,23.70
2022-08-18T19:31:36.200Z,23.30
2022-08-18T19:34:51.136Z,23.50
2022-08-18T19:38:10.204Z,24.30
2022-08-18T19:41:28.979Z,24.50
2022-08-18T19:44:51.116Z,24.50
2022-08-18T19:48:19.917Z,25.80
2022-08-18T19:51:32.678Z,24.50
2022-08-18T19:55:01.598Z,24.40
2022-08-18T19:58:34.273Z,24.30
2022-08-18T20:01:55.449Z,24.40
2022-08-18T20:05:21.564Z,24.30
2022-08-18T20:08:59.176Z,24.40
2022-08-18T20:12:25.382Z,24.40
2022-08-18T20:15:31.073Z,25.30
2022-08-18T20:18:38.175Z,24.50
2022-08-18T20:22:01.067Z,24.40
2022-08-18T20:25:35.838Z,24.50
2022-08-18T20:28:40.851Z,24.40
2022-08-18T20:32:02.881Z,24.50
2022-08-18T20:35:20.543Z,24.40
2022-08-18T20:38:35.525Z,24.50
2022-08-18T20:41:47.150Z,24.50
2022-08-18T20:44:59.569Z,24.50
2022-08-18T20:48:19.698Z,24.50
2022-08-18T20:51:27.134Z,24.40
2022-08-18T20:54:57.547Z,24.50
2022-08-18T20:58:09.965Z,24.50
2022-08-18T21:01:14.647Z,24.50
2022-08-18T21:07:36.487Z,24.50
2022-08-18T21:10:49.809Z,24.50
2022-08-18T21:13:56.494Z,25.00
2022-08-18T21:20:07.694Z,24.50
2022-08-18T21:23:14.960Z,24.50
2022-08-18T21:26:21.005Z,24.60
2022-08-18T21:32:35.674Z,24.50
2022-08-18T21:39:05.120Z,21.50
2022-08-18T21:42:20.484Z,24.50
2022-08-18T21:45:24.308Z,24.50
2022-08-18T21:48:29.780Z,24.60
2022-08-18T21:51:45.216Z,24.40
2022-08-18T21:58:07.341Z,24.50
2022-08-18T22:01:22.807Z,24.70
2022-08-18T22:04:32.056Z,24.50
2022-08-18T22:11:00.963Z,24.50
2022-08-18T22:14:27.819Z,24.30
2022-08-18T22:17:34.900Z,24.40
2022-08-18T22:20:49.403Z,24.40
2022-08-18T22:24:11.191Z,24.30
2022-08-18T22:27:22.313Z,23.90
2022-08-18T22:30:26.851Z,24.30
2022-08-18T22:36:39.379Z,24.30
2022-08-18T22:39:47.890Z,24.30
2022-08-18T22:45:56.245Z,24.30
2022-08-18T22:55:13.622Z,23.80
2022-08-18T23:01:34.042Z,24.30
2022-08-18T23:04:37.356Z,24.30
2022-08-18T23:07:40.719Z,24.20
2022-08-18T23:16:54.112Z,24.20
2022-08-18T23:29:11.698Z,24.00
2022-08-18T23:32:16.959Z,24.00
2022-08-18T23:41:38.166Z,23.80
2022-08-18T23:47:46.823Z,23.90
2022-08-18T23:53:56.855Z,23.70
